sensor_id;sensor_type;location;lat;lon;timestamp;temperature;humidity
36924;DHT22;22841;50.252;18.688;2023-04-25T00:00:19;10.80;99.90
36924;DHT22;22841;50.252;18.688;2023-04-25T00:02:45;10.70;99.90
36924;DHT22;22841;50.252;18.688;2023-04-25T00:05:12;10.80;99.90
36924;DHT22;22841;50.252;18.688;2023-04-25T00:07:38;10.70;99.90
36924;DHT22;22841;50.252;18.688;2023-04-25T00:10:05;10.70;99.90
36924;DHT22;22841;50.252;18.688;2023-04-25T00:12:36;10.70;99.90
36924;DHT22;22841;50.252;18.688;2023-04-25T00:15:03;10.70;99.90
36924;DHT22;22841;50.252;18.688;2023-04-25T00:17:30;10.80;99.90
36924;DHT22;22841;50.252;18.688;2023-04-25T00:19:57;10.70;99.90
36924;DHT22;22841;50.252;18.688;2023-04-25T00:22:24;10.70;99.90
36924;DHT22;22841;50.252;18.688;2023-04-25T00:24:50;10.60;99.90
36924;DHT22;22841;50.252;18.688;2023-04-25T00:27:16;10.60;99.90
36924;DHT22;22841;50.252;18.688;2023-04-25T00:29:42;10.50;99.90
36924;DHT22;22841;50.252;18.688;2023-04-25T00:32:08;10.60;99.90
36924;DHT22;22841;50.252;18.688;2023-04-25T00:34:34;10.50;99.90
36924;DHT22;22841;50.252;18.688;2023-04-25T00:37:00;10.40;99.90
36924;DHT22;22841;50.252;18.688;2023-04-25T00:39:28;10.40;99.90
36924;DHT22;22841;50.252;18.688;2023-04-25T00:41:54;10.30;99.90
36924;DHT22;22841;50.252;18.688;2023-04-25T00:44:20;10.30;99.90
36924;DHT22;22841;50.252;18.688;2023-04-25T00:46:50;10.30;99.90
36924;DHT22;22841;50.252;18.688;2023-04-25T00:49:16;10.30;99.90
36924;DHT22;22841;50.252;18.688;2023-04-25T00:51:43;10.20;99.90
36924;DHT22;22841;50.252;18.688;2023-04-25T00:54:13;10.20;99.90
36924;DHT22;22841;50.252;18.688;2023-04-25T00:56:40;10.20;99.90
36924;DHT22;22841;50.252;18.688;2023-04-25T00:59:06;10.20;99.90
36924;DHT22;22841;50.252;18.688;2023-04-25T01:01:33;10.20;99.90
36924;DHT22;22841;50.252;18.688;2023-04-25T01:03:59;10.10;99.90
36924;DHT22;22841;50.252;18.688;2023-04-25T01:06:25;10.20;99.90
36924;DHT22;22841;50.252;18.688;2023-04-25T01:08:53;10.10;99.90
36924;DHT22;22841;50.252;18.688;2023-04-25T01:11:19;10.10;99.90
36924;DHT22;22841;50.252;18.688;2023-04-25T01:13:45;10.10;99.90
36924;DHT22;22841;50.252;18.688;2023-04-25T01:16:11;10.00;99.90
36924;DHT22;22841;50.252;18.688;2023-04-25T01:18:41;10.00;99.90
36924;DHT22;22841;50.252;18.688;2023-04-25T01:21:10;10.00;99.90
36924;DHT22;22841;50.252;18.688;2023-04-25T01:23:40;10.00;99.90
36924;DHT22;22841;50.252;18.688;2023-04-25T01:26:08;10.00;99.90
36924;DHT22;22841;50.252;18.688;2023-04-25T01:28:34;9.90;99.90
36924;DHT22;22841;50.252;18.688;2023-04-25T01:31:01;10.00;99.90
36924;DHT22;22841;50.252;18.688;2023-04-25T01:33:27;9.90;99.90
36924;DHT22;22841;50.252;18.688;2023-04-25T01:35:53;9.90;99.90
36924;DHT22;22841;50.252;18.688;2023-04-25T01:38:20;9.90;99.90
36924;DHT22;22841;50.252;18.688;2023-04-25T01:40:46;9.80;99.90
36924;DHT22;22841;50.252;18.688;2023-04-25T01:43:15;9.80;99.90
36924;DHT22;22841;50.252;18.688;2023-04-25T01:45:41;9.80;99.90
36924;DHT22;22841;50.252;18.688;2023-04-25T01:48:09;9.70;99.90
36924;DHT22;22841;50.252;18.688;2023-04-25T01:50:35;9.70;99.90
36924;DHT22;22841;50.252;18.688;2023-04-25T01:53:01;9.60;99.90
36924;DHT22;22841;50.252;18.688;2023-04-25T01:55:28;9.60;99.90
36924;DHT22;22841;50.252;18.688;2023-04-25T01:57:54;9.60;99.90
36924;DHT22;22841;50.252;18.688;2023-04-25T02:00:20;9.60;99.90
36924;DHT22;22841;50.252;18.688;2023-04-25T02:02:46;9.60;99.90
36924;DHT22;22841;50.252;18.688;2023-04-25T02:05:12;9.50;99.90
36924;DHT22;22841;50.252;18.688;2023-04-25T02:07:38;9.60;99.90
36924;DHT22;22841;50.252;18.688;2023-04-25T02:10:05;9.50;99.90
36924;DHT22;22841;50.252;18.688;2023-04-25T02:12:31;9.40;99.90
36924;DHT22;22841;50.252;18.688;2023-04-25T02:14:57;9.50;99.90
36924;DHT22;22841;50.252;18.688;2023-04-25T02:17:23;9.50;99.90
36924;DHT22;22841;50.252;18.688;2023-04-25T02:19:49;9.40;99.90
36924;DHT22;22841;50.252;18.688;2023-04-25T02:22:16;9.40;99.90
36924;DHT22;22841;50.252;18.688;2023-04-25T02:24:42;9.30;99.90
36924;DHT22;22841;50.252;18.688;2023-04-25T02:27:08;9.30;99.90
36924;DHT22;22841;50.252;18.688;2023-04-25T02:29:34;9.40;99.90
36924;DHT22;22841;50.252;18.688;2023-04-25T02:32:00;9.40;99.90
36924;DHT22;22841;50.252;18.688;2023-04-25T02:34:26;9.30;99.90
36924;DHT22;22841;50.252;18.688;2023-04-25T02:36:52;9.30;99.90
36924;DHT22;22841;50.252;18.688;2023-04-25T02:39:18;9.30;99.90
36924;DHT22;22841;50.252;18.688;2023-04-25T02:41:44;9.30;99.90
36924;DHT22;22841;50.252;18.688;2023-04-25T02:44:10;9.30;99.90
36924;DHT22;22841;50.252;18.688;2023-04-25T02:46:36;9.30;99.90
36924;DHT22;22841;50.252;18.688;2023-04-25T02:49:03;9.20;99.90
36924;DHT22;22841;50.252;18.688;2023-04-25T02:51:29;9.20;99.90
36924;DHT22;22841;50.252;18.688;2023-04-25T02:53:56;9.20;99.90
36924;DHT22;22841;50.252;18.688;2023-04-25T02:56:22;9.10;99.90
36924;DHT22;22841;50.252;18.688;2023-04-25T02:58:48;9.10;99.90
36924;DHT22;22841;50.252;18.688;2023-04-25T03:01:14;9.20;99.90
36924;DHT22;22841;50.252;18.688;2023-04-25T03:03:40;9.20;99.90
36924;DHT22;22841;50.252;18.688;2023-04-25T03:06:06;9.10;99.90
36924;DHT22;22841;50.252;18.688;2023-04-25T03:08:32;9.10;99.90
36924;DHT22;22841;50.252;18.688;2023-04-25T03:11:00;9.10;99.90
36924;DHT22;22841;50.252;18.688;2023-04-25T03:13:26;9.00;99.90
36924;DHT22;22841;50.252;18.688;2023-04-25T03:15:53;9.00;99.90
36924;DHT22;22841;50.252;18.688;2023-04-25T03:18:19;9.00;99.90
36924;DHT22;22841;50.252;18.688;2023-04-25T03:20:45;9.00;99.90
36924;DHT22;22841;50.252;18.688;2023-04-25T03:23:12;9.00;99.90
36924;DHT22;22841;50.252;18.688;2023-04-25T03:25:38;8.90;99.90
36924;DHT22;22841;50.252;18.688;2023-04-25T03:28:04;9.00;99.90
36924;DHT22;22841;50.252;18.688;2023-04-25T03:30:30;8.90;99.90
36924;DHT22;22841;50.252;18.688;2023-04-25T03:32:56;8.90;99.90
36924;DHT22;22841;50.252;18.688;2023-04-25T03:35:22;8.90;99.90
36924;DHT22;22841;50.252;18.688;2023-04-25T03:37:49;8.90;99.90
36924;DHT22;22841;50.252;18.688;2023-04-25T03:40:15;8.90;99.90
36924;DHT22;22841;50.252;18.688;2023-04-25T03:42:41;8.90;99.90
36924;DHT22;22841;50.252;18.688;2023-04-25T03:45:08;8.90;99.90
36924;DHT22;22841;50.252;18.688;2023-04-25T03:47:34;8.90;99.90
36924;DHT22;22841;50.252;18.688;2023-04-25T03:50:00;8.90;99.90
36924;DHT22;22841;50.252;18.688;2023-04-25T03:52:27;8.90;99.90
36924;DHT22;22841;50.252;18.688;2023-04-25T03:54:53;8.90;99.90
36924;DHT22;22841;50.252;18.688;2023-04-25T03:57:19;8.90;99.90
36924;DHT22;22841;50.252;18.688;2023-04-25T03:59:45;8.90;99.90
36924;DHT22;22841;50.252;18.688;2023-04-25T04:02:11;8.80;99.90
36924;DHT22;22841;50.252;18.688;2023-04-25T04:04:37;8.80;99.90
36924;DHT22;22841;50.252;18.688;2023-04-25T04:07:03;8.80;99.90
36924;DHT22;22841;50.252;18.688;2023-04-25T04:09:29;8.80;99.90
36924;DHT22;22841;50.252;18.688;2023-04-25T04:11:55;8.80;99.90
36924;DHT22;22841;50.252;18.688;2023-04-25T04:14:21;8.80;99.90
36924;DHT22;22841;50.252;18.688;2023-04-25T04:16:47;8.90;99.90
36924;DHT22;22841;50.252;18.688;2023-04-25T04:19:14;8.80;99.90
36924;DHT22;22841;50.252;18.688;2023-04-25T04:21:40;8.90;99.90
36924;DHT22;22841;50.252;18.688;2023-04-25T04:24:06;8.90;99.90
36924;DHT22;22841;50.252;18.688;2023-04-25T04:26:32;8.90;99.90
36924;DHT22;22841;50.252;18.688;2023-04-25T04:29:00;8.90;99.90
36924;DHT22;22841;50.252;18.688;2023-04-25T04:31:26;8.80;99.90
36924;DHT22;22841;50.252;18.688;2023-04-25T04:33:52;8.90;99.90
36924;DHT22;22841;50.252;18.688;2023-04-25T04:36:18;9.00;99.90
36924;DHT22;22841;50.252;18.688;2023-04-25T04:38:48;8.90;99.90
36924;DHT22;22841;50.252;18.688;2023-04-25T04:41:14;8.90;99.90
36924;DHT22;22841;50.252;18.688;2023-04-25T04:43:40;8.90;99.90
36924;DHT22;22841;50.252;18.688;2023-04-25T04:46:07;8.90;99.90
36924;DHT22;22841;50.252;18.688;2023-04-25T04:48:33;8.90;99.90
36924;DHT22;22841;50.252;18.688;2023-04-25T04:51:00;8.90;99.90
36924;DHT22;22841;50.252;18.688;2023-04-25T04:53:26;8.90;99.90
36924;DHT22;22841;50.252;18.688;2023-04-25T04:55:53;8.90;99.90
36924;DHT22;22841;50.252;18.688;2023-04-25T04:58:19;8.90;99.90
36924;DHT22;22841;50.252;18.688;2023-04-25T05:00:45;9.00;99.90
36924;DHT22;22841;50.252;18.688;2023-04-25T05:03:12;9.00;99.90
36924;DHT22;22841;50.252;18.688;2023-04-25T05:05:38;9.00;99.90
36924;DHT22;22841;50.252;18.688;2023-04-25T05:08:06;9.00;99.90
36924;DHT22;22841;50.252;18.688;2023-04-25T05:10:32;9.00;99.90
36924;DHT22;22841;50.252;18.688;2023-04-25T05:12:58;9.00;99.90
36924;DHT22;22841;50.252;18.688;2023-04-25T05:15:24;9.00;99.90
36924;DHT22;22841;50.252;18.688;2023-04-25T05:17:50;9.00;99.90
36924;DHT22;22841;50.252;18.688;2023-04-25T05:20:16;9.00;99.90
36924;DHT22;22841;50.252;18.688;2023-04-25T05:22:44;9.00;99.90
36924;DHT22;22841;50.252;18.688;2023-04-25T05:25:11;9.10;99.90
36924;DHT22;22841;50.252;18.688;2023-04-25T05:27:37;9.00;99.90
36924;DHT22;22841;50.252;18.688;2023-04-25T05:30:03;9.00;99.90
36924;DHT22;22841;50.252;18.688;2023-04-25T05:32:30;9.10;99.90
36924;DHT22;22841;50.252;18.688;2023-04-25T05:34:56;9.10;99.90
36924;DHT22;22841;50.252;18.688;2023-04-25T05:37:22;9.20;99.90
36924;DHT22;22841;50.252;18.688;2023-04-25T05:39:48;9.10;99.90
36924;DHT22;22841;50.252;18.688;2023-04-25T05:42:14;9.20;99.90
36924;DHT22;22841;50.252;18.688;2023-04-25T05:44:40;9.20;99.90
36924;DHT22;22841;50.252;18.688;2023-04-25T05:47:08;9.20;99.90
36924;DHT22;22841;50.252;18.688;2023-04-25T05:49:34;9.20;99.90
36924;DHT22;22841;50.252;18.688;2023-04-25T05:52:00;9.20;99.90
36924;DHT22;22841;50.252;18.688;2023-04-25T05:54:26;9.20;99.90
36924;DHT22;22841;50.252;18.688;2023-04-25T05:56:52;9.20;99.90
36924;DHT22;22841;50.252;18.688;2023-04-25T05:59:18;9.20;99.90
36924;DHT22;22841;50.252;18.688;2023-04-25T06:01:45;9.20;99.90
36924;DHT22;22841;50.252;18.688;2023-04-25T06:04:11;9.20;99.90
36924;DHT22;22841;50.252;18.688;2023-04-25T06:06:37;9.20;99.90
36924;DHT22;22841;50.252;18.688;2023-04-25T06:09:03;9.20;99.90
36924;DHT22;22841;50.252;18.688;2023-04-25T06:11:29;9.30;99.90
36924;DHT22;22841;50.252;18.688;2023-04-25T06:13:55;9.20;99.90
36924;DHT22;22841;50.252;18.688;2023-04-25T06:16:21;9.30;99.90
36924;DHT22;22841;50.252;18.688;2023-04-25T06:18:47;9.30;99.90
36924;DHT22;22841;50.252;18.688;2023-04-25T06:21:13;9.40;99.90
36924;DHT22;22841;50.252;18.688;2023-04-25T06:23:39;9.40;99.90
36924;DHT22;22841;50.252;18.688;2023-04-25T06:26:05;9.30;99.90
36924;DHT22;22841;50.252;18.688;2023-04-25T06:28:31;9.40;99.90
36924;DHT22;22841;50.252;18.688;2023-04-25T06:30:57;9.50;99.90
36924;DHT22;22841;50.252;18.688;2023-04-25T06:33:23;9.40;99.90
36924;DHT22;22841;50.252;18.688;2023-04-25T06:35:50;9.50;99.90
36924;DHT22;22841;50.252;18.688;2023-04-25T06:38:16;9.40;99.90
36924;DHT22;22841;50.252;18.688;2023-04-25T06:40:42;9.50;99.90
36924;DHT22;22841;50.252;18.688;2023-04-25T06:43:08;9.60;99.90
36924;DHT22;22841;50.252;18.688;2023-04-25T06:45:34;9.60;99.90
36924;DHT22;22841;50.252;18.688;2023-04-25T06:48:00;9.60;99.90
36924;DHT22;22841;50.252;18.688;2023-04-25T06:50:26;9.70;99.90
36924;DHT22;22841;50.252;18.688;2023-04-25T06:52:52;9.70;99.90
36924;DHT22;22841;50.252;18.688;2023-04-25T06:55:18;9.70;99.90
36924;DHT22;22841;50.252;18.688;2023-04-25T06:57:44;9.80;99.90
36924;DHT22;22841;50.252;18.688;2023-04-25T07:00:11;9.80;99.90
36924;DHT22;22841;50.252;18.688;2023-04-25T07:02:37;9.90;99.90
36924;DHT22;22841;50.252;18.688;2023-04-25T07:05:03;9.90;99.90
36924;DHT22;22841;50.252;18.688;2023-04-25T07:07:30;9.90;99.90
36924;DHT22;22841;50.252;18.688;2023-04-25T07:09:56;9.80;99.90
36924;DHT22;22841;50.252;18.688;2023-04-25T07:12:22;9.90;99.90
36924;DHT22;22841;50.252;18.688;2023-04-25T07:14:48;9.80;99.90
36924;DHT22;22841;50.252;18.688;2023-04-25T07:17:14;9.90;99.90
36924;DHT22;22841;50.252;18.688;2023-04-25T07:19:41;9.90;99.90
36924;DHT22;22841;50.252;18.688;2023-04-25T07:22:07;9.80;99.90
36924;DHT22;22841;50.252;18.688;2023-04-25T07:24:33;9.90;99.90
36924;DHT22;22841;50.252;18.688;2023-04-25T07:26:59;9.90;99.90
36924;DHT22;22841;50.252;18.688;2023-04-25T07:29:27;10.00;99.90
36924;DHT22;22841;50.252;18.688;2023-04-25T07:31:53;10.10;99.90
36924;DHT22;22841;50.252;18.688;2023-04-25T07:34:19;10.10;99.90
36924;DHT22;22841;50.252;18.688;2023-04-25T07:36:45;10.20;99.90
36924;DHT22;22841;50.252;18.688;2023-04-25T07:39:11;10.30;99.90
36924;DHT22;22841;50.252;18.688;2023-04-25T07:41:38;10.40;99.90
36924;DHT22;22841;50.252;18.688;2023-04-25T07:44:04;10.40;99.90
36924;DHT22;22841;50.252;18.688;2023-04-25T07:46:30;10.50;99.90
36924;DHT22;22841;50.252;18.688;2023-04-25T07:48:56;10.60;99.90
36924;DHT22;22841;50.252;18.688;2023-04-25T07:51:22;10.70;99.90
36924;DHT22;22841;50.252;18.688;2023-04-25T07:53:48;10.60;99.90
36924;DHT22;22841;50.252;18.688;2023-04-25T07:56:14;10.70;99.90
36924;DHT22;22841;50.252;18.688;2023-04-25T07:58:40;10.70;99.90
36924;DHT22;22841;50.252;18.688;2023-04-25T08:01:06;10.70;99.90
36924;DHT22;22841;50.252;18.688;2023-04-25T08:03:32;10.60;99.90
36924;DHT22;22841;50.252;18.688;2023-04-25T08:05:58;10.70;99.90
36924;DHT22;22841;50.252;18.688;2023-04-25T08:08:24;10.70;99.90
36924;DHT22;22841;50.252;18.688;2023-04-25T08:10:50;10.70;99.90
36924;DHT22;22841;50.252;18.688;2023-04-25T08:13:17;10.90;99.90
36924;DHT22;22841;50.252;18.688;2023-04-25T08:15:43;11.10;99.90
36924;DHT22;22841;50.252;18.688;2023-04-25T08:18:09;11.20;99.90
36924;DHT22;22841;50.252;18.688;2023-04-25T08:20:35;11.40;99.90
36924;DHT22;22841;50.252;18.688;2023-04-25T08:23:01;11.40;99.90
36924;DHT22;22841;50.252;18.688;2023-04-25T08:25:27;11.40;99.90
36924;DHT22;22841;50.252;18.688;2023-04-25T08:27:54;11.50;99.90
36924;DHT22;22841;50.252;18.688;2023-04-25T08:30:21;11.60;99.90
36924;DHT22;22841;50.252;18.688;2023-04-25T08:32:47;11.70;99.90
36924;DHT22;22841;50.252;18.688;2023-04-25T08:35:13;11.70;99.90
36924;DHT22;22841;50.252;18.688;2023-04-25T08:37:39;11.70;99.90
36924;DHT22;22841;50.252;18.688;2023-04-25T08:40:06;11.80;99.90
36924;DHT22;22841;50.252;18.688;2023-04-25T08:42:37;11.90;99.90
36924;DHT22;22841;50.252;18.688;2023-04-25T08:45:04;11.90;99.90
36924;DHT22;22841;50.252;18.688;2023-04-25T08:47:31;11.90;99.90
36924;DHT22;22841;50.252;18.688;2023-04-25T08:49:59;11.90;99.90
36924;DHT22;22841;50.252;18.688;2023-04-25T08:52:30;11.90;99.90
36924;DHT22;22841;50.252;18.688;2023-04-25T08:54:58;11.80;99.90
36924;DHT22;22841;50.252;18.688;2023-04-25T08:57:26;11.90;99.90
36924;DHT22;22841;50.252;18.688;2023-04-25T08:59:54;12.00;99.90
36924;DHT22;22841;50.252;18.688;2023-04-25T09:02:21;12.00;99.90
36924;DHT22;22841;50.252;18.688;2023-04-25T09:04:48;12.00;99.90
36924;DHT22;22841;50.252;18.688;2023-04-25T09:07:15;12.20;99.90
36924;DHT22;22841;50.252;18.688;2023-04-25T09:09:45;12.20;99.90
36924;DHT22;22841;50.252;18.688;2023-04-25T09:12:11;12.10;99.90
36924;DHT22;22841;50.252;18.688;2023-04-25T09:14:37;12.10;99.90
36924;DHT22;22841;50.252;18.688;2023-04-25T09:17:05;12.10;99.90
36924;DHT22;22841;50.252;18.688;2023-04-25T09:19:35;12.00;99.90
36924;DHT22;22841;50.252;18.688;2023-04-25T09:22:03;12.10;99.90
36924;DHT22;22841;50.252;18.688;2023-04-25T09:24:31;12.00;99.90
36924;DHT22;22841;50.252;18.688;2023-04-25T09:26:58;11.90;99.90
36924;DHT22;22841;50.252;18.688;2023-04-25T09:29:35;11.90;99.90
36924;DHT22;22841;50.252;18.688;2023-04-25T09:32:22;12.10;99.90
36924;DHT22;22841;50.252;18.688;2023-04-25T09:34:50;12.10;99.90
36924;DHT22;22841;50.252;18.688;2023-04-25T09:37:18;12.20;99.90
36924;DHT22;22841;50.252;18.688;2023-04-25T09:39:46;12.30;99.90
36924;DHT22;22841;50.252;18.688;2023-04-25T09:42:16;12.20;99.90
36924;DHT22;22841;50.252;18.688;2023-04-25T09:44:46;12.10;99.90
36924;DHT22;22841;50.252;18.688;2023-04-25T09:47:14;12.10;99.90
36924;DHT22;22841;50.252;18.688;2023-04-25T09:49:42;12.10;99.90
36924;DHT22;22841;50.252;18.688;2023-04-25T09:52:09;12.00;99.90
36924;DHT22;22841;50.252;18.688;2023-04-25T09:54:35;12.10;99.90
36924;DHT22;22841;50.252;18.688;2023-04-25T10:00:04;12.20;99.90
36924;DHT22;22841;50.252;18.688;2023-04-25T10:02:36;11.90;99.90
36924;DHT22;22841;50.252;18.688;2023-04-25T10:05:05;11.90;99.90
36924;DHT22;22841;50.252;18.688;2023-04-25T10:07:34;11.90;99.90
36924;DHT22;22841;50.252;18.688;2023-04-25T10:10:04;11.80;99.90
36924;DHT22;22841;50.252;18.688;2023-04-25T10:12:33;11.80;99.90
36924;DHT22;22841;50.252;18.688;2023-04-25T10:14:59;11.90;99.90
36924;DHT22;22841;50.252;18.688;2023-04-25T10:17:26;11.90;99.90
36924;DHT22;22841;50.252;18.688;2023-04-25T10:19:54;12.00;99.90
36924;DHT22;22841;50.252;18.688;2023-04-25T10:24:52;11.90;99.90
36924;DHT22;22841;50.252;18.688;2023-04-25T10:27:18;11.80;99.90
36924;DHT22;22841;50.252;18.688;2023-04-25T10:29:45;11.70;99.90
36924;DHT22;22841;50.252;18.688;2023-04-25T10:32:24;11.80;99.90
36924;DHT22;22841;50.252;18.688;2023-04-25T10:34:50;11.80;99.90
36924;DHT22;22841;50.252;18.688;2023-04-25T10:37:16;11.80;99.90
36924;DHT22;22841;50.252;18.688;2023-04-25T10:39:44;11.80;99.90
36924;DHT22;22841;50.252;18.688;2023-04-25T10:42:12;11.80;99.90
36924;DHT22;22841;50.252;18.688;2023-04-25T10:44:38;11.90;99.90
36924;DHT22;22841;50.252;18.688;2023-04-25T10:47:08;11.90;99.90
36924;DHT22;22841;50.252;18.688;2023-04-25T10:49:37;11.90;99.90
36924;DHT22;22841;50.252;18.688;2023-04-25T10:54:56;12.00;99.90
36924;DHT22;22841;50.252;18.688;2023-04-25T10:57:43;12.10;99.90
36924;DHT22;22841;50.252;18.688;2023-04-25T11:00:17;12.30;99.90
36924;DHT22;22841;50.252;18.688;2023-04-25T11:02:52;12.30;99.90
36924;DHT22;22841;50.252;18.688;2023-04-25T11:07:58;12.50;99.90
36924;DHT22;22841;50.252;18.688;2023-04-25T11:10:27;12.30;99.90
36924;DHT22;22841;50.252;18.688;2023-04-25T11:12:54;12.30;99.90
36924;DHT22;22841;50.252;18.688;2023-04-25T11:15:20;12.30;99.90
36924;DHT22;22841;50.252;18.688;2023-04-25T11:17:46;12.30;99.90
36924;DHT22;22841;50.252;18.688;2023-04-25T11:20:13;12.20;99.90
36924;DHT22;22841;50.252;18.688;2023-04-25T11:22:40;12.00;99.90
36924;DHT22;22841;50.252;18.688;2023-04-25T11:25:10;12.00;99.90
36924;DHT22;22841;50.252;18.688;2023-04-25T11:27:59;12.00;99.90
36924;DHT22;22841;50.252;18.688;2023-04-25T11:30:27;12.10;99.90
36924;DHT22;22841;50.252;18.688;2023-04-25T11:32:54;12.10;99.90
36924;DHT22;22841;50.252;18.688;2023-04-25T11:35:20;12.00;99.90
36924;DHT22;22841;50.252;18.688;2023-04-25T11:37:49;12.10;99.90
36924;DHT22;22841;50.252;18.688;2023-04-25T11:40:15;12.00;99.90
36924;DHT22;22841;50.252;18.688;2023-04-25T11:42:46;12.00;99.90
36924;DHT22;22841;50.252;18.688;2023-04-25T11:45:13;12.00;99.90
36924;DHT22;22841;50.252;18.688;2023-04-25T11:47:39;11.90;99.90
36924;DHT22;22841;50.252;18.688;2023-04-25T11:50:07;11.80;99.90
36924;DHT22;22841;50.252;18.688;2023-04-25T11:52:41;11.90;99.90
36924;DHT22;22841;50.252;18.688;2023-04-25T11:55:15;12.00;99.90
36924;DHT22;22841;50.252;18.688;2023-04-25T11:57:43;12.00;99.90
36924;DHT22;22841;50.252;18.688;2023-04-25T12:00:11;11.90;99.90
36924;DHT22;22841;50.252;18.688;2023-04-25T12:02:43;11.80;99.90
36924;DHT22;22841;50.252;18.688;2023-04-25T12:05:11;11.70;99.90
36924;DHT22;22841;50.252;18.688;2023-04-25T12:07:37;11.80;99.90
36924;DHT22;22841;50.252;18.688;2023-04-25T12:10:08;11.70;99.90
36924;DHT22;22841;50.252;18.688;2023-04-25T12:12:35;11.80;99.90
36924;DHT22;22841;50.252;18.688;2023-04-25T12:15:19;11.80;99.90
36924;DHT22;22841;50.252;18.688;2023-04-25T12:17:50;11.80;99.90
36924;DHT22;22841;50.252;18.688;2023-04-25T12:20:21;11.80;99.90
36924;DHT22;22841;50.252;18.688;2023-04-25T12:22:50;11.60;99.90
36924;DHT22;22841;50.252;18.688;2023-04-25T12:25:36;11.60;99.90
36924;DHT22;22841;50.252;18.688;2023-04-25T12:28:22;11.60;99.90
36924;DHT22;22841;50.252;18.688;2023-04-25T12:31:04;11.60;99.90
36924;DHT22;22841;50.252;18.688;2023-04-25T12:33:34;11.70;99.90
36924;DHT22;22841;50.252;18.688;2023-04-25T12:36:03;11.80;99.90
36924;DHT22;22841;50.252;18.688;2023-04-25T12:38:40;11.70;99.90
36924;DHT22;22841;50.252;18.688;2023-04-25T12:41:06;11.70;99.90
36924;DHT22;22841;50.252;18.688;2023-04-25T12:43:33;11.70;99.90
36924;DHT22;22841;50.252;18.688;2023-04-25T12:45:59;11.70;99.90
36924;DHT22;22841;50.252;18.688;2023-04-25T12:48:25;11.70;99.90
36924;DHT22;22841;50.252;18.688;2023-04-25T12:50:51;11.70;99.90
36924;DHT22;22841;50.252;18.688;2023-04-25T12:53:19;11.80;99.90
36924;DHT22;22841;50.252;18.688;2023-04-25T12:55:45;11.80;99.90
36924;DHT22;22841;50.252;18.688;2023-04-25T12:58:16;11.90;99.90
36924;DHT22;22841;50.252;18.688;2023-04-25T13:00:43;11.80;99.90
36924;DHT22;22841;50.252;18.688;2023-04-25T13:03:10;11.90;99.90
36924;DHT22;22841;50.252;18.688;2023-04-25T13:05:37;11.90;99.90
36924;DHT22;22841;50.252;18.688;2023-04-25T13:08:03;11.90;99.90
36924;DHT22;22841;50.252;18.688;2023-04-25T13:10:30;11.90;99.90
36924;DHT22;22841;50.252;18.688;2023-04-25T13:12:57;11.90;99.90
36924;DHT22;22841;50.252;18.688;2023-04-25T13:15:23;12.10;99.90
36924;DHT22;22841;50.252;18.688;2023-04-25T13:17:49;12.20;99.90
36924;DHT22;22841;50.252;18.688;2023-04-25T13:20:15;12.30;99.90
36924;DHT22;22841;50.252;18.688;2023-04-25T13:22:42;12.40;99.90
36924;DHT22;22841;50.252;18.688;2023-04-25T13:25:08;12.50;99.90
36924;DHT22;22841;50.252;18.688;2023-04-25T13:27:35;12.70;99.90
36924;DHT22;22841;50.252;18.688;2023-04-25T13:30:03;12.70;99.90
36924;DHT22;22841;50.252;18.688;2023-04-25T13:32:36;12.70;99.90
36924;DHT22;22841;50.252;18.688;2023-04-25T13:35:04;12.70;99.90
36924;DHT22;22841;50.252;18.688;2023-04-25T13:37:30;12.70;99.90
36924;DHT22;22841;50.252;18.688;2023-04-25T13:40:06;12.70;99.90
36924;DHT22;22841;50.252;18.688;2023-04-25T13:42:35;12.60;99.90
36924;DHT22;22841;50.252;18.688;2023-04-25T13:45:02;12.60;99.90
36924;DHT22;22841;50.252;18.688;2023-04-25T13:47:28;12.70;99.90
36924;DHT22;22841;50.252;18.688;2023-04-25T13:49:54;12.80;99.90
36924;DHT22;22841;50.252;18.688;2023-04-25T13:52:20;12.90;99.90
36924;DHT22;22841;50.252;18.688;2023-04-25T13:54:47;12.90;99.90
36924;DHT22;22841;50.252;18.688;2023-04-25T13:57:13;13.00;99.90
36924;DHT22;22841;50.252;18.688;2023-04-25T13:59:39;13.10;99.90
36924;DHT22;22841;50.252;18.688;2023-04-25T14:02:06;13.00;99.90
36924;DHT22;22841;50.252;18.688;2023-04-25T14:04:33;12.90;99.90
36924;DHT22;22841;50.252;18.688;2023-04-25T14:06:59;12.70;99.90
36924;DHT22;22841;50.252;18.688;2023-04-25T14:09:25;12.70;99.90
36924;DHT22;22841;50.252;18.688;2023-04-25T14:11:53;12.70;99.90
36924;DHT22;22841;50.252;18.688;2023-04-25T14:14:20;12.60;99.90
36924;DHT22;22841;50.252;18.688;2023-04-25T14:16:47;12.70;99.90
36924;DHT22;22841;50.252;18.688;2023-04-25T14:19:17;12.70;99.90
36924;DHT22;22841;50.252;18.688;2023-04-25T14:21:43;12.80;99.90
36924;DHT22;22841;50.252;18.688;2023-04-25T14:24:10;12.80;99.90
36924;DHT22;22841;50.252;18.688;2023-04-25T14:26:39;12.90;99.90
36924;DHT22;22841;50.252;18.688;2023-04-25T14:29:05;13.00;99.90
36924;DHT22;22841;50.252;18.688;2023-04-25T14:31:33;13.00;99.90
36924;DHT22;22841;50.252;18.688;2023-04-25T14:34:00;13.10;99.90
36924;DHT22;22841;50.252;18.688;2023-04-25T14:36:28;13.10;99.90
36924;DHT22;22841;50.252;18.688;2023-04-25T14:38:54;13.00;99.90
36924;DHT22;22841;50.252;18.688;2023-04-25T14:41:20;12.90;99.90
36924;DHT22;22841;50.252;18.688;2023-04-25T14:43:47;12.80;99.90
36924;DHT22;22841;50.252;18.688;2023-04-25T14:46:13;12.70;99.90
36924;DHT22;22841;50.252;18.688;2023-04-25T14:48:39;12.60;99.90
36924;DHT22;22841;50.252;18.688;2023-04-25T14:51:05;12.40;99.90
36924;DHT22;22841;50.252;18.688;2023-04-25T14:53:31;12.30;99.90
36924;DHT22;22841;50.252;18.688;2023-04-25T14:55:58;12.20;99.90
36924;DHT22;22841;50.252;18.688;2023-04-25T14:58:24;12.10;99.90
36924;DHT22;22841;50.252;18.688;2023-04-25T15:00:50;12.00;99.90
36924;DHT22;22841;50.252;18.688;2023-04-25T15:03:17;12.10;99.90
36924;DHT22;22841;50.252;18.688;2023-04-25T15:05:43;12.10;99.90
36924;DHT22;22841;50.252;18.688;2023-04-25T15:08:09;12.30;99.90
36924;DHT22;22841;50.252;18.688;2023-04-25T15:10:36;12.50;99.90
36924;DHT22;22841;50.252;18.688;2023-04-25T15:13:03;12.60;99.90
36924;DHT22;22841;50.252;18.688;2023-04-25T15:15:29;12.60;99.90
36924;DHT22;22841;50.252;18.688;2023-04-25T15:17:56;12.70;99.90
36924;DHT22;22841;50.252;18.688;2023-04-25T15:20:23;12.70;99.90
36924;DHT22;22841;50.252;18.688;2023-04-25T15:22:49;12.70;99.90
36924;DHT22;22841;50.252;18.688;2023-04-25T15:25:16;12.70;99.90
36924;DHT22;22841;50.252;18.688;2023-04-25T15:27:44;12.60;99.90
36924;DHT22;22841;50.252;18.688;2023-04-25T15:30:12;12.50;99.90
36924;DHT22;22841;50.252;18.688;2023-04-25T15:32:39;12.40;99.90